createdAt,value
2023-05-01T00:02:19.217Z,101632.78
2023-05-01T00:07:21.457Z,101646.63
2023-05-01T00:12:23.686Z,101637.31
2023-05-01T00:17:27.235Z,101638.00
2023-05-01T00:22:29.384Z,101638.69
2023-05-01T00:27:31.753Z,101632.78
2023-05-01T00:32:35.307Z,101634.31
2023-05-01T00:37:37.565Z,101628.22
2023-05-01T00:42:39.766Z,101623.44
2023-05-01T00:47:43.585Z,101619.75
2023-05-01T00:52:46.810Z,101622.22
2023-05-01T00:57:49.050Z,101616.88
2023-05-01T01:02:52.510Z,101608.84
2023-05-01T01:08:04.519Z,101609.53
2023-05-01T01:13:27.593Z,101603.63
2023-05-01T01:18:36.314Z,101609.00
2023-05-01T01:24:11.822Z,101595.69
2023-05-01T01:29:41.999Z,101604.13
2023-05-01T01:34:50.703Z,101602.25
2023-05-01T01:39:55.103Z,101598.13
2023-05-01T01:45:03.312Z,101593.16
2023-05-01T01:50:10.300Z,101590.81
2023-05-01T01:55:14.705Z,101583.41
2023-05-01T02:00:18.116Z,101582.97
2023-05-01T02:05:21.959Z,101579.72
2023-05-01T02:10:25.845Z,101575.25
2023-05-01T02:15:29.642Z,101568.03
2023-05-01T02:20:33.905Z,101562.16
2023-05-01T02:25:38.254Z,101548.66
2023-05-01T02:30:40.393Z,101553.94
2023-05-01T02:35:45.001Z,101537.09
2023-05-01T02:40:51.875Z,101530.72
2023-05-01T02:45:55.433Z,101523.81
2023-05-01T02:51:01.337Z,101515.84
2023-05-01T02:56:05.032Z,101513.81
2023-05-01T03:01:07.106Z,101508.56
2023-05-01T03:06:10.680Z,101507.19
2023-05-01T03:11:13.365Z,101503.94
2023-05-01T03:16:15.535Z,101494.97
2023-05-01T03:21:19.031Z,101501.66
2023-05-01T03:26:21.260Z,101496.56
2023-05-01T03:31:23.541Z,101486.84
2023-05-01T03:36:27.051Z,101486.94
2023-05-01T03:41:29.257Z,101493.47
2023-05-01T03:46:31.315Z,101481.47
2023-05-01T03:51:35.254Z,101487.44
2023-05-01T03:56:37.441Z,101490.78
2023-05-01T04:01:39.932Z,101481.97
2023-05-01T04:06:45.374Z,101479.97
2023-05-01T04:11:47.082Z,101476.84
2023-05-01T04:16:48.790Z,101464.47
2023-05-01T04:21:51.844Z,101466.97
2023-05-01T04:26:54.130Z,101455.88
2023-05-01T04:31:55.854Z,101464.50
2023-05-01T04:36:59.419Z,101463.63
2023-05-01T04:42:01.498Z,101459.38
2023-05-01T04:47:03.431Z,101457.38
2023-05-01T04:52:07.197Z,101451.16
2023-05-01T04:57:09.446Z,101444.72
2023-05-01T05:02:11.215Z,101444.69
2023-05-01T05:07:14.910Z,101444.75
2023-05-01T05:12:17.014Z,101442.66
2023-05-01T05:17:18.723Z,101440.31
2023-05-01T05:22:22.347Z,101429.22
2023-05-01T05:27:24.322Z,101419.78
2023-05-01T05:32:26.592Z,101417.22
2023-05-01T05:37:29.857Z,101410.66
2023-05-01T05:42:31.905Z,101406.97
2023-05-01T05:47:33.618Z,101404.84
2023-05-01T05:52:37.267Z,101401.88
2023-05-01T05:57:39.368Z,101411.78
2023-05-01T06:02:41.607Z,101405.56
2023-05-01T06:07:46.873Z,101412.06
2023-05-01T06:12:51.755Z,101401.03
2023-05-01T06:18:06.910Z,101406.84
2023-05-01T06:23:10.322Z,101393.56
2023-05-01T06:28:12.450Z,101393.91
2023-05-01T06:33:15.069Z,101391.13
2023-05-01T06:38:18.543Z,101400.19
2023-05-01T06:43:20.868Z,101390.56
2023-05-01T06:48:22.874Z,101386.13
2023-05-01T06:53:26.638Z,101390.34
2023-05-01T06:58:28.405Z,101385.88
2023-05-01T07:03:30.821Z,101384.94
2023-05-01T07:08:34.344Z,101383.47
2023-05-01T07:13:36.480Z,101370.38
2023-05-01T07:18:38.584Z,101365.84
2023-05-01T07:23:42.154Z,101366.25
2023-05-01T07:28:44.474Z,101363.34
2023-05-01T07:33:46.702Z,101351.09
2023-05-01T07:38:50.323Z,101351.41
2023-05-01T07:43:52.544Z,101346.44
2023-05-01T07:48:54.548Z,101335.75
2023-05-01T07:53:58.266Z,101316.56
2023-05-01T07:59:00.387Z,101319.56
2023-05-01T08:04:02.367Z,101323.09
2023-05-01T08:09:06.105Z,101312.53
2023-05-01T08:14:08.288Z,101312.91
2023-05-01T08:19:10.456Z,101314.06
2023-05-01T08:24:13.757Z,101308.34
2023-05-01T08:29:15.824Z,101314.91
2023-05-01T08:34:18.020Z,101304.13
2023-05-01T08:39:21.464Z,101289.47
2023-05-01T08:44:26.066Z,101297.25
2023-05-01T08:49:32.940Z,101290.81
2023-05-01T08:54:37.562Z,101280.81
2023-05-01T08:59:41.193Z,101272.53
2023-05-01T09:04:44.391Z,101259.41
2023-05-01T09:09:48.119Z,101257.44
2023-05-01T09:14:50.680Z,101248.59
2023-05-01T09:19:53.509Z,101232.88
2023-05-01T09:24:57.170Z,101229.84
2023-05-01T09:29:59.390Z,101240.78
2023-05-01T09:35:10.961Z,101216.34
2023-05-01T09:40:15.519Z,101205.94
2023-05-01T09:45:18.816Z,101197.09
2023-05-01T09:50:31.668Z,101191.47
2023-05-01T09:55:35.701Z,101186.91
2023-05-01T10:00:48.668Z,101175.19
2023-05-01T10:05:51.388Z,101173.44
2023-05-01T10:11:04.817Z,101165.03
2023-05-01T10:16:07.714Z,101166.88
2023-05-01T10:21:09.828Z,101158.38
2023-05-01T10:26:14.309Z,101148.09
2023-05-01T10:31:16.790Z,101146.16
2023-05-01T10:36:21.899Z,101143.88
2023-05-01T10:42:10.318Z,101134.09
2023-05-01T10:47:47.566Z,101119.88
2023-05-01T10:53:17.672Z,101113.72
2023-05-01T10:58:53.337Z,101109.94
2023-05-01T11:03:57.448Z,101100.09
2023-05-01T11:08:59.925Z,101099.66
2023-05-01T11:14:02.919Z,101079.97
2023-05-01T11:19:06.834Z,101070.28
2023-05-01T11:24:09.471Z,101062.09
2023-05-01T11:29:12.487Z,101067.19
2023-05-01T11:34:16.107Z,101043.44
2023-05-01T11:39:18.446Z,101055.78
2023-05-01T11:44:20.705Z,101030.72
2023-05-01T11:49:28.438Z,101031.53
2023-05-01T11:54:30.695Z,101020.81
2023-05-01T11:59:33.143Z,101020.97
2023-05-01T12:04:36.646Z,101017.22
2023-05-01T12:09:39.793Z,101005.97
2023-05-01T12:14:42.300Z,100992.91
2023-05-01T12:19:49.391Z,100993.09
2023-05-01T12:24:52.047Z,100993.34
2023-05-01T12:29:55.032Z,100988.59
2023-05-01T12:34:58.775Z,100974.91
2023-05-01T12:40:01.596Z,100976.91
2023-05-01T12:45:04.325Z,100979.31
2023-05-01T12:50:08.994Z,100960.88
2023-05-01T12:55:11.596Z,100958.97
2023-05-01T13:00:15.216Z,100962.69
2023-05-01T13:05:19.501Z,100949.84
2023-05-01T13:10:31.593Z,100950.03
2023-05-01T13:15:33.883Z,100940.06
2023-05-01T13:20:37.556Z,100938.13
2023-05-01T13:25:39.878Z,100920.69
2023-05-01T13:30:42.276Z,100925.72
2023-05-01T13:35:45.724Z,100927.56
2023-05-01T13:40:47.817Z,100913.41
2023-05-01T13:45:50.008Z,100903.78
2023-05-01T13:50:53.673Z,100904.53
2023-05-01T13:55:55.861Z,100895.22
2023-05-01T14:00:58.122Z,100881.00
2023-05-01T14:06:01.627Z,100883.25
2023-05-01T14:11:06.288Z,100876.59
2023-05-01T14:16:09.763Z,100874.63
2023-05-01T14:21:15.084Z,100866.59
2023-05-01T14:26:19.265Z,100864.75
2023-05-01T14:31:25.767Z,100857.41
2023-05-01T14:36:29.779Z,100851.78
2023-05-01T14:41:32.015Z,100848.53
2023-05-01T14:46:36.276Z,100836.69
2023-05-01T14:51:41.442Z,100844.94
2023-05-01T14:56:44.149Z,100845.78
2023-05-01T15:01:46.203Z,100836.75
2023-05-01T15:06:49.414Z,100833.19
2023-05-01T15:11:51.552Z,100841.31
2023-05-01T15:16:53.795Z,100831.13
2023-05-01T15:21:57.143Z,100834.31
2023-05-01T15:27:00.282Z,100828.81
2023-05-01T15:32:11.815Z,100824.28
2023-05-01T15:37:16.089Z,100820.97
2023-05-01T15:42:18.355Z,100826.78
2023-05-01T15:47:20.070Z,100829.28
2023-05-01T15:52:23.671Z,100804.13
2023-05-01T15:57:25.395Z,100808.34
2023-05-01T16:02:31.181Z,100807.63
2023-05-01T16:07:34.963Z,100809.75
2023-05-01T16:12:36.911Z,100812.97
2023-05-01T16:17:43.382Z,100813.25
2023-05-01T16:22:46.590Z,100806.25
2023-05-01T16:27:48.855Z,100809.06
2023-05-01T16:32:50.663Z,100813.47
2023-05-01T16:37:54.705Z,100811.38
2023-05-01T16:42:57.012Z,100804.75
2023-05-01T16:47:59.063Z,100797.50
2023-05-01T16:53:02.464Z,100801.91
2023-05-01T16:58:04.769Z,100799.94
2023-05-01T17:03:07.330Z,100810.72
2023-05-01T17:08:10.476Z,100799.25
2023-05-01T17:13:12.205Z,100803.25
2023-05-01T17:18:14.350Z,100807.97
2023-05-01T17:23:17.942Z,100799.97
2023-05-01T17:28:20.043Z,100799.44
2023-05-01T17:33:21.792Z,100801.72
2023-05-01T17:38:25.266Z,100796.38
2023-05-01T17:43:27.216Z,100801.03
2023-05-01T17:48:29.122Z,100791.00
2023-05-01T17:53:32.557Z,100792.59
2023-05-01T17:58:34.298Z,100792.66
2023-05-01T18:03:36.857Z,100794.25
2023-05-01T18:08:40.193Z,100789.59
2023-05-01T18:13:42.305Z,100787.13
2023-05-01T18:18:44.402Z,100794.41
2023-05-01T18:23:48.505Z,100796.25
2023-05-01T18:28:51.088Z,100787.19
2023-05-01T18:33:52.901Z,100793.66
2023-05-01T18:38:56.779Z,100797.06
2023-05-01T18:43:58.884Z,100795.00
2023-05-01T18:49:00.980Z,100801.47
2023-05-01T18:54:05.019Z,100800.06
2023-05-01T18:59:07.352Z,100799.22
2023-05-01T19:04:09.734Z,100795.38
2023-05-01T19:09:13.676Z,100794.81
2023-05-01T19:14:16.429Z,100790.59
2023-05-01T19:19:19.916Z,100797.06
2023-05-01T19:24:23.098Z,100794.66
2023-05-01T19:29:25.192Z,100793.06
2023-05-01T19:34:27.027Z,100802.09
2023-05-01T19:39:30.657Z,100797.69
2023-05-01T19:44:32.791Z,100796.22
2023-05-01T19:49:34.924Z,100802.75
2023-05-01T19:54:38.579Z,100797.66
2023-05-01T19:59:40.423Z,100808.34
2023-05-01T20:04:42.815Z,100796.78
2023-05-01T20:09:46.224Z,100796.22
2023-05-01T20:14:48.311Z,100794.59
2023-05-01T20:19:50.674Z,100798.22
2023-05-01T20:24:54.000Z,100799.97
2023-05-01T20:29:55.915Z,100800.28
2023-05-01T20:34:57.937Z,100800.78
2023-05-01T20:40:01.676Z,100800.00
2023-05-01T20:45:04.890Z,100799.28
2023-05-01T20:50:07.962Z,100801.72
2023-05-01T20:55:11.949Z,100797.59
2023-05-01T21:00:13.904Z,100801.38
2023-05-01T21:05:16.257Z,100810.47
2023-05-01T21:10:19.372Z,100810.56
2023-05-01T21:15:21.533Z,100801.56
2023-05-01T21:20:30.840Z,100805.19
2023-05-01T21:25:34.771Z,100809.91
2023-05-01T21:30:37.323Z,100808.25
2023-05-01T21:35:42.134Z,100813.69
2023-05-01T21:40:45.283Z,100828.75
2023-05-01T21:45:47.132Z,100817.19
2023-05-01T21:50:49.981Z,100821.78
2023-05-01T21:55:53.072Z,100822.03
2023-05-01T22:00:55.148Z,100823.91
2023-05-01T22:05:58.366Z,100822.25
2023-05-01T22:11:01.742Z,100827.75
2023-05-01T22:16:04.416Z,100829.63
2023-05-01T22:21:06.709Z,100831.44
2023-05-01T22:26:10.165Z,100833.25
2023-05-01T22:31:12.445Z,100831.53
2023-05-01T22:36:14.499Z,100835.19
2023-05-01T22:41:18.080Z,100844.03
2023-05-01T22:46:20.502Z,100831.78
2023-05-01T22:51:22.251Z,100828.41
2023-05-01T22:56:25.648Z,100832.97
2023-05-01T23:01:27.659Z,100832.16
2023-05-01T23:06:29.984Z,100841.13
2023-05-01T23:11:34.602Z,100832.34
2023-05-01T23:16:40.786Z,100839.56
2023-05-01T23:21:42.519Z,100838.75
2023-05-01T23:26:46.406Z,100841.50
2023-05-01T23:31:48.129Z,100843.38
2023-05-01T23:36:50.245Z,100834.66
2023-05-01T23:41:53.820Z,100834.88
2023-05-01T23:46:56.347Z,100831.50
2023-05-01T23:51:58.246Z,100830.69
2023-05-01T23:57:01.754Z,100836.09
